sensor_id;sensor_type;location;lat;lon;timestamp;P1;durP1;ratioP1;P2;durP2;ratioP2
75285;SDS011;63879;46.064;14.532;2022-09-30T06:02:16;6.53;;;4.25;;
75285;SDS011;63879;46.064;14.532;2022-09-30T06:04:41;4.72;;;3.30;;
75285;SDS011;63879;46.064;14.532;2022-09-30T06:07:06;5.30;;;4.30;;
75285;SDS011;63879;46.064;14.532;2022-09-30T06:09:32;6.47;;;5.50;;
75285;SDS011;63879;46.064;14.532;2022-09-30T06:11:57;8.03;;;4.83;;
75285;SDS011;63879;46.064;14.532;2022-09-30T06:14:24;7.85;;;5.85;;
75285;SDS011;63879;46.064;14.532;2022-09-30T06:16:49;7.05;;;4.90;;
75285;SDS011;63879;46.064;14.532;2022-09-30T06:19:15;5.45;;;3.67;;
75285;SDS011;63879;46.064;14.532;2022-09-30T06:21:40;6.40;;;4.05;;
75285;SDS011;63879;46.064;14.532;2022-09-30T06:24:06;10.03;;;4.67;;
75285;SDS011;63879;46.064;14.532;2022-09-30T06:26:37;8.90;;;4.65;;
75285;SDS011;63879;46.064;14.532;2022-09-30T06:29:02;10.27;;;6.28;;
75285;SDS011;63879;46.064;14.532;2022-09-30T06:31:28;15.25;;;10.00;;
75285;SDS011;63879;46.064;14.532;2022-09-30T06:33:54;10.32;;;7.07;;
75285;SDS011;63879;46.064;14.532;2022-09-30T06:36:21;9.63;;;6.22;;
75285;SDS011;63879;46.064;14.532;2022-09-30T06:38:47;9.82;;;5.57;;
75285;SDS011;63879;46.064;14.532;2022-09-30T06:41:15;8.32;;;5.95;;
75285;SDS011;63879;46.064;14.532;2022-09-30T06:43:41;9.32;;;4.75;;
75285;SDS011;63879;46.064;14.532;2022-09-30T06:46:07;7.70;;;5.78;;
75285;SDS011;63879;46.064;14.532;2022-09-30T06:48:33;8.50;;;7.30;;
75285;SDS011;63879;46.064;14.532;2022-09-30T06:50:58;10.80;;;7.13;;
75285;SDS011;63879;46.064;14.532;2022-09-30T06:53:24;11.68;;;7.90;;
75285;SDS011;63879;46.064;14.532;2022-09-30T06:55:55;9.77;;;6.70;;
75285;SDS011;63879;46.064;14.532;2022-09-30T06:58:21;8.05;;;5.38;;
75285;SDS011;63879;46.064;14.532;2022-09-30T07:00:55;8.20;;;5.82;;
75285;SDS011;63879;46.064;14.532;2022-09-30T07:03:23;8.15;;;5.22;;
75285;SDS011;63879;46.064;14.532;2022-09-30T07:05:53;8.85;;;5.50;;
75285;SDS011;63879;46.064;14.532;2022-09-30T07:08:21;9.43;;;7.07;;
75285;SDS011;63879;46.064;14.532;2022-09-30T07:10:47;9.32;;;6.15;;
75285;SDS011;63879;46.064;14.532;2022-09-30T07:13:12;9.77;;;5.70;;
75285;SDS011;63879;46.064;14.532;2022-09-30T07:15:40;8.43;;;5.32;;
75285;SDS011;63879;46.064;14.532;2022-09-30T07:18:06;10.75;;;5.63;;
75285;SDS011;63879;46.064;14.532;2022-09-30T07:20:32;11.18;;;6.57;;
75285;SDS011;63879;46.064;14.532;2022-09-30T07:22:57;9.68;;;6.25;;
75285;SDS011;63879;46.064;14.532;2022-09-30T07:25:24;10.48;;;6.00;;
75285;SDS011;63879;46.064;14.532;2022-09-30T07:27:49;8.75;;;6.07;;
75285;SDS011;63879;46.064;14.532;2022-09-30T07:30:15;11.35;;;7.10;;
75285;SDS011;63879;46.064;14.532;2022-09-30T07:32:40;8.90;;;6.93;;
75285;SDS011;63879;46.064;14.532;2022-09-30T07:35:06;9.52;;;6.30;;
75285;SDS011;63879;46.064;14.532;2022-09-30T07:37:31;8.80;;;6.05;;
75285;SDS011;63879;46.064;14.532;2022-09-30T07:40:00;9.30;;;5.88;;
75285;SDS011;63879;46.064;14.532;2022-09-30T07:42:26;10.02;;;7.05;;
75285;SDS011;63879;46.064;14.532;2022-09-30T07:44:52;10.43;;;9.07;;
75285;SDS011;63879;46.064;14.532;2022-09-30T07:47:18;8.48;;;6.10;;
75285;SDS011;63879;46.064;14.532;2022-09-30T07:49:44;8.07;;;5.78;;
75285;SDS011;63879;46.064;14.532;2022-09-30T07:52:10;7.55;;;5.88;;
75285;SDS011;63879;46.064;14.532;2022-09-30T07:54:37;7.20;;;5.75;;
75285;SDS011;63879;46.064;14.532;2022-09-30T07:57:03;6.70;;;5.40;;
75285;SDS011;63879;46.064;14.532;2022-09-30T07:59:28;6.30;;;4.95;;
75285;SDS011;63879;46.064;14.532;2022-09-30T08:01:55;5.70;;;4.47;;
75285;SDS011;63879;46.064;14.532;2022-09-30T08:04:22;7.78;;;5.68;;
75285;SDS011;63879;46.064;14.532;2022-09-30T08:06:58;6.70;;;5.18;;
75285;SDS011;63879;46.064;14.532;2022-09-30T08:09:25;8.40;;;5.07;;
75285;SDS011;63879;46.064;14.532;2022-09-30T08:11:51;8.20;;;6.05;;
75285;SDS011;63879;46.064;14.532;2022-09-30T08:14:21;8.18;;;7.38;;
75285;SDS011;63879;46.064;14.532;2022-09-30T08:16:49;8.93;;;6.15;;
75285;SDS011;63879;46.064;14.532;2022-09-30T08:19:16;9.18;;;6.55;;
75285;SDS011;63879;46.064;14.532;2022-09-30T08:24:08;7.35;;;5.32;;
75285;SDS011;63879;46.064;14.532;2022-09-30T08:26:34;7.30;;;5.82;;
75285;SDS011;63879;46.064;14.532;2022-09-30T08:29:00;7.70;;;6.70;;
75285;SDS011;63879;46.064;14.532;2022-09-30T08:31:25;8.37;;;6.10;;
75285;SDS011;63879;46.064;14.532;2022-09-30T08:33:52;7.68;;;5.85;;
75285;SDS011;63879;46.064;14.532;2022-09-30T08:36:19;7.82;;;4.82;;
75285;SDS011;63879;46.064;14.532;2022-09-30T08:38:46;6.80;;;5.22;;
75285;SDS011;63879;46.064;14.532;2022-09-30T08:51:52;5.45;;;4.18;;
75285;SDS011;63879;46.064;14.532;2022-09-30T08:54:22;6.95;;;5.72;;
75285;SDS011;63879;46.064;14.532;2022-09-30T08:56:49;5.68;;;4.88;;
75285;SDS011;63879;46.064;14.532;2022-09-30T08:59:20;7.65;;;6.10;;
75285;SDS011;63879;46.064;14.532;2022-09-30T09:02:13;7.13;;;6.43;;
75285;SDS011;63879;46.064;14.532;2022-09-30T09:04:47;6.97;;;6.25;;
75285;SDS011;63879;46.064;14.532;2022-09-30T09:12:28;11.57;;;9.50;;
75285;SDS011;63879;46.064;14.532;2022-09-30T09:20:36;10.20;;;9.30;;
75285;SDS011;63879;46.064;14.532;2022-09-30T09:23:07;11.75;;;10.52;;
75285;SDS011;63879;46.064;14.532;2022-09-30T09:25:34;9.13;;;8.23;;
75285;SDS011;63879;46.064;14.532;2022-09-30T09:28:00;8.75;;;7.93;;
75285;SDS011;63879;46.064;14.532;2022-09-30T09:30:35;8.00;;;7.25;;
75285;SDS011;63879;46.064;14.532;2022-09-30T09:33:41;8.43;;;7.63;;
75285;SDS011;63879;46.064;14.532;2022-09-30T09:44:32;7.05;;;6.35;;
75285;SDS011;63879;46.064;14.532;2022-09-30T09:47:09;5.40;;;4.63;;
75285;SDS011;63879;46.064;14.532;2022-09-30T09:49:41;5.15;;;4.65;;
75285;SDS011;63879;46.064;14.532;2022-09-30T09:54:50;7.00;;;6.07;;
75285;SDS011;63879;46.064;14.532;2022-09-30T09:57:22;5.10;;;4.45;;
75285;SDS011;63879;46.064;14.532;2022-09-30T10:06:00;4.03;;;2.30;;
75285;SDS011;63879;46.064;14.532;2022-09-30T10:08:37;1.98;;;1.42;;
75285;SDS011;63879;46.064;14.532;2022-09-30T10:11:16;3.03;;;2.65;;
75285;SDS011;63879;46.064;14.532;2022-09-30T10:13:46;3.05;;;2.58;;
75285;SDS011;63879;46.064;14.532;2022-09-30T10:16:24;2.88;;;2.10;;
75285;SDS011;63879;46.064;14.532;2022-09-30T10:18:55;2.83;;;2.05;;
75285;SDS011;63879;46.064;14.532;2022-09-30T10:21:22;3.13;;;2.42;;
75285;SDS011;63879;46.064;14.532;2022-09-30T10:23:48;3.05;;;1.80;;
75285;SDS011;63879;46.064;14.532;2022-09-30T10:31:22;3.03;;;2.28;;
75285;SDS011;63879;46.064;14.532;2022-09-30T10:33:52;2.67;;;2.40;;
75285;SDS011;63879;46.064;14.532;2022-09-30T10:36:22;4.10;;;2.42;;
75285;SDS011;63879;46.064;14.532;2022-09-30T10:38:56;3.25;;;2.63;;
75285;SDS011;63879;46.064;14.532;2022-09-30T10:41:24;3.38;;;2.33;;
75285;SDS011;63879;46.064;14.532;2022-09-30T10:43:52;4.05;;;3.00;;
75285;SDS011;63879;46.064;14.532;2022-09-30T10:46:24;2.78;;;2.35;;
75285;SDS011;63879;46.064;14.532;2022-09-30T10:48:52;4.07;;;2.53;;
75285;SDS011;63879;46.064;14.532;2022-09-30T10:51:24;4.75;;;2.70;;
75285;SDS011;63879;46.064;14.532;2022-09-30T10:53:53;5.45;;;2.38;;
75285;SDS011;63879;46.064;14.532;2022-09-30T10:56:39;3.25;;;2.58;;
75285;SDS011;63879;46.064;14.532;2022-09-30T10:59:09;3.25;;;1.80;;
75285;SDS011;63879;46.064;14.532;2022-09-30T11:01:43;1.90;;;1.33;;
75285;SDS011;63879;46.064;14.532;2022-09-30T11:07:03;3.53;;;2.03;;
75285;SDS011;63879;46.064;14.532;2022-09-30T11:09:39;3.35;;;2.30;;
75285;SDS011;63879;46.064;14.532;2022-09-30T11:12:13;4.13;;;3.67;;
75285;SDS011;63879;46.064;14.532;2022-09-30T11:14:49;3.60;;;2.97;;
75285;SDS011;63879;46.064;14.532;2022-09-30T11:17:24;2.80;;;2.13;;
75285;SDS011;63879;46.064;14.532;2022-09-30T11:20:00;4.95;;;1.48;;
75285;SDS011;63879;46.064;14.532;2022-09-30T11:22:45;2.85;;;1.88;;
75285;SDS011;63879;46.064;14.532;2022-09-30T11:25:15;3.60;;;3.13;;
75285;SDS011;63879;46.064;14.532;2022-09-30T11:30:19;3.40;;;1.55;;
75285;SDS011;63879;46.064;14.532;2022-09-30T11:35:54;3.30;;;2.03;;
75285;SDS011;63879;46.064;14.532;2022-09-30T11:38:42;3.05;;;1.48;;
75285;SDS011;63879;46.064;14.532;2022-09-30T11:41:25;2.08;;;1.23;;
75285;SDS011;63879;46.064;14.532;2022-09-30T11:55:12;1.83;;;1.08;;
75285;SDS011;63879;46.064;14.532;2022-09-30T11:58:05;1.77;;;0.80;;
75285;SDS011;63879;46.064;14.532;2022-09-30T12:00:33;3.10;;;0.93;;
75285;SDS011;63879;46.064;14.532;2022-09-30T12:06:03;3.72;;;1.25;;
75285;SDS011;63879;46.064;14.532;2022-09-30T12:08:36;2.95;;;0.75;;
75285;SDS011;63879;46.064;14.532;2022-09-30T12:11:07;3.60;;;1.45;;
75285;SDS011;63879;46.064;14.532;2022-09-30T12:13:38;2.20;;;0.90;;
75285;SDS011;63879;46.064;14.532;2022-09-30T12:16:14;1.63;;;0.70;;
75285;SDS011;63879;46.064;14.532;2022-09-30T12:18:45;1.75;;;1.10;;
75285;SDS011;63879;46.064;14.532;2022-09-30T12:21:17;1.15;;;0.82;;
75285;SDS011;63879;46.064;14.532;2022-09-30T12:23:46;1.75;;;0.88;;
75285;SDS011;63879;46.064;14.532;2022-09-30T12:26:19;4.63;;;0.60;;
75285;SDS011;63879;46.064;14.532;2022-09-30T12:37:28;1.70;;;1.60;;
75285;SDS011;63879;46.064;14.532;2022-09-30T12:46:21;1.17;;;1.08;;
75285;SDS011;63879;46.064;14.532;2022-09-30T12:48:59;1.40;;;0.93;;
75285;SDS011;63879;46.064;14.532;2022-09-30T12:51:31;1.60;;;0.88;;
75285;SDS011;63879;46.064;14.532;2022-09-30T12:54:02;1.58;;;1.23;;
75285;SDS011;63879;46.064;14.532;2022-09-30T12:56:35;2.10;;;1.27;;
75285;SDS011;63879;46.064;14.532;2022-09-30T12:59:01;1.95;;;1.40;;
75285;SDS011;63879;46.064;14.532;2022-09-30T13:01:31;1.98;;;1.58;;
75285;SDS011;63879;46.064;14.532;2022-09-30T13:11:47;1.98;;;1.38;;
75285;SDS011;63879;46.064;14.532;2022-09-30T13:14:40;2.17;;;1.58;;
75285;SDS011;63879;46.064;14.532;2022-09-30T13:19:47;1.63;;;1.45;;
75285;SDS011;63879;46.064;14.532;2022-09-30T13:25:14;2.90;;;1.23;;
75285;SDS011;63879;46.064;14.532;2022-09-30T13:27:50;2.63;;;1.63;;
75285;SDS011;63879;46.064;14.532;2022-09-30T13:30:35;2.30;;;1.52;;
75285;SDS011;63879;46.064;14.532;2022-09-30T13:40:54;2.83;;;1.05;;
75285;SDS011;63879;46.064;14.532;2022-09-30T13:45:54;3.72;;;1.73;;
75285;SDS011;63879;46.064;14.532;2022-09-30T13:48:44;3.05;;;1.27;;
75285;SDS011;63879;46.064;14.532;2022-09-30T13:51:09;3.13;;;1.17;;
75285;SDS011;63879;46.064;14.532;2022-09-30T13:53:42;3.30;;;1.30;;
75285;SDS011;63879;46.064;14.532;2022-09-30T14:10:56;2.10;;;1.17;;
75285;SDS011;63879;46.064;14.532;2022-09-30T14:14:17;1.50;;;1.00;;
75285;SDS011;63879;46.064;14.532;2022-09-30T14:19:37;2.33;;;1.10;;
75285;SDS011;63879;46.064;14.532;2022-09-30T14:22:27;1.70;;;1.48;;
75285;SDS011;63879;46.064;14.532;2022-09-30T14:24:54;2.72;;;1.25;;
75285;SDS011;63879;46.064;14.532;2022-09-30T14:30:13;2.70;;;1.73;;
75285;SDS011;63879;46.064;14.532;2022-09-30T14:35:13;3.05;;;1.98;;
75285;SDS011;63879;46.064;14.532;2022-09-30T14:37:44;3.78;;;2.30;;
75285;SDS011;63879;46.064;14.532;2022-09-30T14:40:25;4.82;;;1.80;;
75285;SDS011;63879;46.064;14.532;2022-09-30T14:48:07;1.15;;;0.88;;
75285;SDS011;63879;46.064;14.532;2022-09-30T14:50:57;2.55;;;1.35;;
75285;SDS011;63879;46.064;14.532;2022-09-30T14:53:29;2.60;;;1.10;;
75285;SDS011;63879;46.064;14.532;2022-09-30T17:06:30;9.57;;;5.50;;
75285;SDS011;63879;46.064;14.532;2022-09-30T17:08:56;10.30;;;5.75;;
75285;SDS011;63879;46.064;14.532;2022-09-30T17:11:25;12.15;;;7.32;;
75285;SDS011;63879;46.064;14.532;2022-09-30T17:13:51;9.05;;;7.45;;
75285;SDS011;63879;46.064;14.532;2022-09-30T17:16:17;9.43;;;6.93;;
75285;SDS011;63879;46.064;14.532;2022-09-30T17:18:42;8.98;;;6.32;;
75285;SDS011;63879;46.064;14.532;2022-09-30T17:21:07;8.68;;;6.10;;
75285;SDS011;63879;46.064;14.532;2022-09-30T17:23:33;9.32;;;7.55;;
75285;SDS011;63879;46.064;14.532;2022-09-30T17:25:58;10.63;;;7.20;;
75285;SDS011;63879;46.064;14.532;2022-09-30T17:28:24;9.93;;;7.22;;
75285;SDS011;63879;46.064;14.532;2022-09-30T17:30:49;9.20;;;6.10;;
75285;SDS011;63879;46.064;14.532;2022-09-30T17:33:15;8.32;;;7.00;;
75285;SDS011;63879;46.064;14.532;2022-09-30T17:35:42;10.95;;;6.95;;
75285;SDS011;63879;46.064;14.532;2022-09-30T17:38:09;10.73;;;6.63;;
75285;SDS011;63879;46.064;14.532;2022-09-30T17:40:35;11.38;;;7.22;;
75285;SDS011;63879;46.064;14.532;2022-09-30T17:43:20;8.52;;;5.60;;
75285;SDS011;63879;46.064;14.532;2022-09-30T17:45:46;9.90;;;7.50;;
75285;SDS011;63879;46.064;14.532;2022-09-30T17:48:12;12.05;;;8.25;;
75285;SDS011;63879;46.064;14.532;2022-09-30T17:50:39;11.95;;;9.27;;
75285;SDS011;63879;46.064;14.532;2022-09-30T17:53:12;9.73;;;7.38;;
75285;SDS011;63879;46.064;14.532;2022-09-30T17:55:41;11.02;;;9.20;;
75285;SDS011;63879;46.064;14.532;2022-09-30T17:58:07;12.27;;;8.43;;
75285;SDS011;63879;46.064;14.532;2022-09-30T18:00:34;10.95;;;8.70;;
75285;SDS011;63879;46.064;14.532;2022-09-30T18:03:00;10.02;;;8.02;;
75285;SDS011;63879;46.064;14.532;2022-09-30T18:05:26;13.77;;;9.35;;
75285;SDS011;63879;46.064;14.532;2022-09-30T18:07:52;10.55;;;8.02;;
75285;SDS011;63879;46.064;14.532;2022-09-30T18:10:18;12.20;;;8.02;;
75285;SDS011;63879;46.064;14.532;2022-09-30T18:12:44;9.23;;;6.93;;
75285;SDS011;63879;46.064;14.532;2022-09-30T18:15:14;12.75;;;8.13;;
75285;SDS011;63879;46.064;14.532;2022-09-30T18:17:40;9.50;;;7.47;;
75285;SDS011;63879;46.064;14.532;2022-09-30T18:20:06;9.98;;;7.22;;
75285;SDS011;63879;46.064;14.532;2022-09-30T18:22:32;11.00;;;7.50;;
75285;SDS011;63879;46.064;14.532;2022-09-30T18:24:58;11.50;;;7.18;;
75285;SDS011;63879;46.064;14.532;2022-09-30T18:27:42;8.20;;;6.60;;
75285;SDS011;63879;46.064;14.532;2022-09-30T18:30:07;8.80;;;6.73;;
75285;SDS011;63879;46.064;14.532;2022-09-30T18:32:34;9.85;;;6.72;;
75285;SDS011;63879;46.064;14.532;2022-09-30T18:34:59;7.95;;;6.25;;
75285;SDS011;63879;46.064;14.532;2022-09-30T18:37:27;8.40;;;6.07;;
75285;SDS011;63879;46.064;14.532;2022-09-30T18:39:52;8.73;;;5.78;;
75285;SDS011;63879;46.064;14.532;2022-09-30T18:42:18;7.57;;;4.57;;
75285;SDS011;63879;46.064;14.532;2022-09-30T18:44:44;8.13;;;5.97;;
75285;SDS011;63879;46.064;14.532;2022-09-30T18:47:12;10.35;;;6.45;;
75285;SDS011;63879;46.064;14.532;2022-09-30T18:49:41;6.10;;;4.40;;
75285;SDS011;63879;46.064;14.532;2022-09-30T18:52:07;10.88;;;7.22;;
75285;SDS011;63879;46.064;14.532;2022-09-30T18:54:32;8.32;;;5.90;;
75285;SDS011;63879;46.064;14.532;2022-09-30T18:56:58;13.02;;;8.63;;
75285;SDS011;63879;46.064;14.532;2022-09-30T18:59:23;15.70;;;9.38;;
75285;SDS011;63879;46.064;14.532;2022-09-30T19:01:50;15.02;;;9.82;;
75285;SDS011;63879;46.064;14.532;2022-09-30T19:04:15;11.55;;;8.60;;
75285;SDS011;63879;46.064;14.532;2022-09-30T19:06:41;13.27;;;8.27;;
75285;SDS011;63879;46.064;14.532;2022-09-30T19:09:07;11.50;;;8.27;;
75285;SDS011;63879;46.064;14.532;2022-09-30T19:11:35;11.80;;;8.27;;
75285;SDS011;63879;46.064;14.532;2022-09-30T19:14:01;12.98;;;9.85;;
75285;SDS011;63879;46.064;14.532;2022-09-30T19:16:30;14.48;;;9.57;;
75285;SDS011;63879;46.064;14.532;2022-09-30T19:18:59;10.73;;;7.22;;
75285;SDS011;63879;46.064;14.532;2022-09-30T19:21:28;9.30;;;6.63;;
75285;SDS011;63879;46.064;14.532;2022-09-30T19:23:59;9.23;;;5.57;;
75285;SDS011;63879;46.064;14.532;2022-09-30T19:26:25;9.00;;;6.13;;
75285;SDS011;63879;46.064;14.532;2022-09-30T19:28:52;9.57;;;5.57;;
75285;SDS011;63879;46.064;14.532;2022-09-30T19:31:18;7.57;;;5.35;;
75285;SDS011;63879;46.064;14.532;2022-09-30T19:33:45;6.72;;;4.63;;
75285;SDS011;63879;46.064;14.532;2022-09-30T19:36:11;7.53;;;5.40;;
75285;SDS011;63879;46.064;14.532;2022-09-30T19:38:41;7.50;;;5.88;;
75285;SDS011;63879;46.064;14.532;2022-09-30T19:41:09;7.22;;;4.95;;
75285;SDS011;63879;46.064;14.532;2022-09-30T19:43:35;7.03;;;5.18;;
75285;SDS011;63879;46.064;14.532;2022-09-30T19:46:02;11.55;;;6.57;;
75285;SDS011;63879;46.064;14.532;2022-09-30T19:48:29;8.05;;;5.93;;
75285;SDS011;63879;46.064;14.532;2022-09-30T19:50:59;7.20;;;6.05;;
75285;SDS011;63879;46.064;14.532;2022-09-30T19:53:29;12.07;;;6.05;;
75285;SDS011;63879;46.064;14.532;2022-09-30T19:58:32;10.65;;;6.13;;
75285;SDS011;63879;46.064;14.532;2022-09-30T20:00:59;8.38;;;5.95;;
75285;SDS011;63879;46.064;14.532;2022-09-30T20:03:25;9.85;;;7.50;;
75285;SDS011;63879;46.064;14.532;2022-09-30T20:06:00;8.13;;;5.82;;
75285;SDS011;63879;46.064;14.532;2022-09-30T20:08:30;6.85;;;4.53;;
75285;SDS011;63879;46.064;14.532;2022-09-30T20:11:16;7.65;;;5.68;;
75285;SDS011;63879;46.064;14.532;2022-09-30T20:13:44;11.25;;;7.35;;
75285;SDS011;63879;46.064;14.532;2022-09-30T20:16:11;8.93;;;7.78;;
75285;SDS011;63879;46.064;14.532;2022-09-30T20:21:10;8.88;;;6.20;;
75285;SDS011;63879;46.064;14.532;2022-09-30T20:23:38;9.30;;;7.47;;
75285;SDS011;63879;46.064;14.532;2022-09-30T20:26:05;10.52;;;6.75;;
75285;SDS011;63879;46.064;14.532;2022-09-30T20:28:31;11.32;;;7.50;;
75285;SDS011;63879;46.064;14.532;2022-09-30T20:30:56;6.95;;;5.13;;
75285;SDS011;63879;46.064;14.532;2022-09-30T20:33:22;8.85;;;5.85;;
75285;SDS011;63879;46.064;14.532;2022-09-30T20:35:48;9.63;;;6.90;;
75285;SDS011;63879;46.064;14.532;2022-09-30T20:38:15;9.35;;;6.85;;
75285;SDS011;63879;46.064;14.532;2022-09-30T20:40:43;9.98;;;7.88;;
75285;SDS011;63879;46.064;14.532;2022-09-30T20:43:08;18.55;;;13.38;;
75285;SDS011;63879;46.064;14.532;2022-09-30T20:45:34;13.90;;;10.60;;
75285;SDS011;63879;46.064;14.532;2022-09-30T20:48:00;13.80;;;9.60;;
75285;SDS011;63879;46.064;14.532;2022-09-30T20:50:26;11.07;;;8.70;;
75285;SDS011;63879;46.064;14.532;2022-09-30T20:53:08;12.43;;;9.18;;
75285;SDS011;63879;46.064;14.532;2022-09-30T20:55:35;15.30;;;8.65;;
75285;SDS011;63879;46.064;14.532;2022-09-30T20:58:02;10.20;;;7.35;;
